sensor_id;sensor_type;location;lat;lon;timestamp;pressure;altitude;pressure_sealevel;temperature
76901;BMP280;65859;43.020;25.096;2023-07-31T00:00:51;98841.63;;;25.84
76901;BMP280;65859;43.020;25.096;2023-07-31T00:03:18;98840.97;;;25.80
76901;BMP280;65859;43.020;25.096;2023-07-31T00:05:44;98840.03;;;25.74
76901;BMP280;65859;43.020;25.096;2023-07-31T00:08:10;98827.34;;;25.58
76901;BMP280;65859;43.020;25.096;2023-07-31T00:10:37;98815.88;;;25.76
76901;BMP280;65859;43.020;25.096;2023-07-31T00:13:03;98817.03;;;25.87
76901;BMP280;65859;43.020;25.096;2023-07-31T00:15:29;98811.25;;;25.64
76901;BMP280;65859;43.020;25.096;2023-07-31T00:17:56;98817.06;;;25.53
76901;BMP280;65859;43.020;25.096;2023-07-31T00:20:22;98806.38;;;25.80
76901;BMP280;65859;43.020;25.096;2023-07-31T00:22:50;98811.75;;;25.71
76901;BMP280;65859;43.020;25.096;2023-07-31T00:25:16;98813.09;;;25.67
76901;BMP280;65859;43.020;25.096;2023-07-31T00:27:42;98817.03;;;25.87
76901;BMP280;65859;43.020;25.096;2023-07-31T00:30:11;98809.91;;;25.68
76901;BMP280;65859;43.020;25.096;2023-07-31T00:32:37;98811.63;;;24.68
76901;BMP280;65859;43.020;25.096;2023-07-31T00:35:04;98820.69;;;25.24
76901;BMP280;65859;43.020;25.096;2023-07-31T00:37:30;98802.84;;;25.36
76901;BMP280;65859;43.020;25.096;2023-07-31T00:39:56;98801.66;;;25.37
76901;BMP280;65859;43.020;25.096;2023-07-31T00:42:22;98793.13;;;25.61
76901;BMP280;65859;43.020;25.096;2023-07-31T00:44:49;98784.16;;;24.91
76901;BMP280;65859;43.020;25.096;2023-07-31T00:47:15;98785.34;;;24.90
76901;BMP280;65859;43.020;25.096;2023-07-31T00:49:41;98786.47;;;25.27
76901;BMP280;65859;43.020;25.096;2023-07-31T00:52:10;98782.84;;;25.65
76901;BMP280;65859;43.020;25.096;2023-07-31T00:54:38;98783.91;;;24.85
76901;BMP280;65859;43.020;25.096;2023-07-31T00:57:05;98784.84;;;24.03
76901;BMP280;65859;43.020;25.096;2023-07-31T00:59:33;98779.59;;;23.67
76901;BMP280;65859;43.020;25.096;2023-07-31T01:02:00;98776.13;;;23.95
76901;BMP280;65859;43.020;25.096;2023-07-31T01:04:26;98763.72;;;23.81
76901;BMP280;65859;43.020;25.096;2023-07-31T01:09:49;98763.78;;;23.65
76901;BMP280;65859;43.020;25.096;2023-07-31T01:12:20;98770.34;;;23.64
76901;BMP280;65859;43.020;25.096;2023-07-31T01:15:07;98769.75;;;23.44
76901;BMP280;65859;43.020;25.096;2023-07-31T01:17:40;98770.78;;;23.17
76901;BMP280;65859;43.020;25.096;2023-07-31T01:20:12;98768.78;;;23.34
76901;BMP280;65859;43.020;25.096;2023-07-31T01:22:48;98764.88;;;23.06
76901;BMP280;65859;43.020;25.096;2023-07-31T01:26:00;98763.91;;;23.13
76901;BMP280;65859;43.020;25.096;2023-07-31T01:31:10;98759.00;;;23.24
76901;BMP280;65859;43.020;25.096;2023-07-31T01:33:38;98756.97;;;23.12
76901;BMP280;65859;43.020;25.096;2023-07-31T01:36:05;98752.41;;;23.25
76901;BMP280;65859;43.020;25.096;2023-07-31T01:38:31;98754.06;;;23.35
76901;BMP280;65859;43.020;25.096;2023-07-31T01:40:58;98745.94;;;23.35
76901;BMP280;65859;43.020;25.096;2023-07-31T01:43:24;98751.13;;;23.13
76901;BMP280;65859;43.020;25.096;2023-07-31T01:45:50;98745.13;;;23.22
76901;BMP280;65859;43.020;25.096;2023-07-31T01:48:17;98744.28;;;23.09
76901;BMP280;65859;43.020;25.096;2023-07-31T01:50:43;98740.91;;;23.05
76901;BMP280;65859;43.020;25.096;2023-07-31T01:53:09;98740.97;;;23.01
76901;BMP280;65859;43.020;25.096;2023-07-31T01:55:38;98741.81;;;22.98
76901;BMP280;65859;43.020;25.096;2023-07-31T01:58:05;98741.56;;;23.09
76901;BMP280;65859;43.020;25.096;2023-07-31T02:00:31;98732.38;;;23.06
76901;BMP280;65859;43.020;25.096;2023-07-31T02:02:58;98734.22;;;23.09
76901;BMP280;65859;43.020;25.096;2023-07-31T02:05:25;98728.63;;;23.00
76901;BMP280;65859;43.020;25.096;2023-07-31T02:07:51;98725.59;;;22.98
76901;BMP280;65859;43.020;25.096;2023-07-31T02:10:18;98722.28;;;22.90
76901;BMP280;65859;43.020;25.096;2023-07-31T02:12:44;98726.19;;;22.89
76901;BMP280;65859;43.020;25.096;2023-07-31T02:15:10;98732.53;;;22.83
76901;BMP280;65859;43.020;25.096;2023-07-31T02:17:37;98727.81;;;23.03
76901;BMP280;65859;43.020;25.096;2023-07-31T02:20:03;98732.34;;;22.74
76901;BMP280;65859;43.020;25.096;2023-07-31T02:22:30;98730.81;;;22.73
76901;BMP280;65859;43.020;25.096;2023-07-31T02:24:56;98733.53;;;22.73
76901;BMP280;65859;43.020;25.096;2023-07-31T02:27:24;98727.78;;;22.71
76901;BMP280;65859;43.020;25.096;2023-07-31T02:29:53;98722.06;;;22.85
76901;BMP280;65859;43.020;25.096;2023-07-31T02:32:20;98725.88;;;23.04
76901;BMP280;65859;43.020;25.096;2023-07-31T02:34:46;98730.22;;;23.30
76901;BMP280;65859;43.020;25.096;2023-07-31T02:37:12;98735.66;;;22.98
76901;BMP280;65859;43.020;25.096;2023-07-31T02:39:39;98740.34;;;24.00
76901;BMP280;65859;43.020;25.096;2023-07-31T02:42:05;98746.22;;;24.11
76901;BMP280;65859;43.020;25.096;2023-07-31T02:44:31;98741.66;;;23.96
76901;BMP280;65859;43.020;25.096;2023-07-31T02:46:57;98732.34;;;24.22
76901;BMP280;65859;43.020;25.096;2023-07-31T02:49:24;98739.50;;;24.16
76901;BMP280;65859;43.020;25.096;2023-07-31T02:51:50;98746.25;;;24.24
76901;BMP280;65859;43.020;25.096;2023-07-31T02:54:16;98754.25;;;24.15
76901;BMP280;65859;43.020;25.096;2023-07-31T02:56:43;98754.84;;;23.36
76901;BMP280;65859;43.020;25.096;2023-07-31T02:59:10;98742.84;;;24.07
76901;BMP280;65859;43.020;25.096;2023-07-31T03:01:37;98755.38;;;24.30
76901;BMP280;65859;43.020;25.096;2023-07-31T03:04:04;98758.41;;;23.78
76901;BMP280;65859;43.020;25.096;2023-07-31T03:06:30;98752.69;;;24.01
76901;BMP280;65859;43.020;25.096;2023-07-31T03:08:56;98758.63;;;23.38
76901;BMP280;65859;43.020;25.096;2023-07-31T03:11:23;98770.63;;;22.92
76901;BMP280;65859;43.020;25.096;2023-07-31T03:13:49;98760.47;;;23.86
76901;BMP280;65859;43.020;25.096;2023-07-31T03:16:15;98767.25;;;23.95
76901;BMP280;65859;43.020;25.096;2023-07-31T03:18:41;98779.81;;;22.94
76901;BMP280;65859;43.020;25.096;2023-07-31T03:21:08;98780.25;;;22.77
76901;BMP280;65859;43.020;25.096;2023-07-31T03:23:34;98780.56;;;22.95
76901;BMP280;65859;43.020;25.096;2023-07-31T03:26:01;98788.44;;;22.73
76901;BMP280;65859;43.020;25.096;2023-07-31T03:28:29;98791.94;;;22.70
76901;BMP280;65859;43.020;25.096;2023-07-31T03:30:57;98798.31;;;22.80
76901;BMP280;65859;43.020;25.096;2023-07-31T03:33:24;98791.59;;;22.88
76901;BMP280;65859;43.020;25.096;2023-07-31T03:35:50;98796.22;;;22.51
76901;BMP280;65859;43.020;25.096;2023-07-31T03:38:16;98795.66;;;22.60
76901;BMP280;65859;43.020;25.096;2023-07-31T03:40:42;98795.72;;;22.56
76901;BMP280;65859;43.020;25.096;2023-07-31T03:43:09;98790.56;;;22.62
76901;BMP280;65859;43.020;25.096;2023-07-31T03:45:36;98796.34;;;22.64
76901;BMP280;65859;43.020;25.096;2023-07-31T03:48:03;98789.28;;;22.50
76901;BMP280;65859;43.020;25.096;2023-07-31T03:50:29;98783.88;;;22.50
76901;BMP280;65859;43.020;25.096;2023-07-31T03:52:55;98787.53;;;22.60
76901;BMP280;65859;43.020;25.096;2023-07-31T03:55:22;98783.53;;;22.48
76901;BMP280;65859;43.020;25.096;2023-07-31T03:57:48;98786.31;;;22.45
76901;BMP280;65859;43.020;25.096;2023-07-31T04:00:14;98788.91;;;22.68
76901;BMP280;65859;43.020;25.096;2023-07-31T04:02:42;98789.97;;;22.54
76901;BMP280;65859;43.020;25.096;2023-07-31T04:05:08;98783.00;;;22.37
76901;BMP280;65859;43.020;25.096;2023-07-31T04:07:35;98792.94;;;22.60
76901;BMP280;65859;43.020;25.096;2023-07-31T04:10:01;98788.75;;;22.75
76901;BMP280;65859;43.020;25.096;2023-07-31T04:12:28;98792.66;;;23.23
76901;BMP280;65859;43.020;25.096;2023-07-31T04:14:54;98802.25;;;22.59
76901;BMP280;65859;43.020;25.096;2023-07-31T04:17:20;98800.31;;;22.59
76901;BMP280;65859;43.020;25.096;2023-07-31T04:19:47;98811.09;;;22.23
76901;BMP280;65859;43.020;25.096;2023-07-31T04:22:13;98798.19;;;22.31
76901;BMP280;65859;43.020;25.096;2023-07-31T04:24:39;98803.22;;;22.29
76901;BMP280;65859;43.020;25.096;2023-07-31T04:27:06;98812.81;;;22.34
76901;BMP280;65859;43.020;25.096;2023-07-31T04:29:32;98820.00;;;22.20
76901;BMP280;65859;43.020;25.096;2023-07-31T04:31:58;98814.66;;;22.17
76901;BMP280;65859;43.020;25.096;2023-07-31T04:34:25;98810.78;;;22.18
76901;BMP280;65859;43.020;25.096;2023-07-31T04:36:52;98813.72;;;22.27
76901;BMP280;65859;43.020;25.096;2023-07-31T04:39:18;98816.34;;;22.30
76901;BMP280;65859;43.020;25.096;2023-07-31T04:41:44;98820.78;;;22.41
76901;BMP280;65859;43.020;25.096;2023-07-31T04:44:10;98820.00;;;22.96
76901;BMP280;65859;43.020;25.096;2023-07-31T04:46:37;98827.75;;;22.58
76901;BMP280;65859;43.020;25.096;2023-07-31T04:49:03;98833.53;;;22.60
76901;BMP280;65859;43.020;25.096;2023-07-31T04:51:30;98846.34;;;22.76
76901;BMP280;65859;43.020;25.096;2023-07-31T04:53:56;98845.44;;;22.62
76901;BMP280;65859;43.020;25.096;2023-07-31T04:56:23;98835.16;;;22.74
76901;BMP280;65859;43.020;25.096;2023-07-31T04:58:49;98832.53;;;23.06
76901;BMP280;65859;43.020;25.096;2023-07-31T05:01:15;98833.59;;;22.56
76901;BMP280;65859;43.020;25.096;2023-07-31T05:03:41;98841.34;;;22.74
76901;BMP280;65859;43.020;25.096;2023-07-31T05:06:10;98842.28;;;23.36
76901;BMP280;65859;43.020;25.096;2023-07-31T05:08:36;98841.41;;;22.71
76901;BMP280;65859;43.020;25.096;2023-07-31T05:11:03;98844.97;;;22.68
76901;BMP280;65859;43.020;25.096;2023-07-31T05:13:30;98843.69;;;22.92
76901;BMP280;65859;43.020;25.096;2023-07-31T05:15:56;98846.09;;;23.06
76901;BMP280;65859;43.020;25.096;2023-07-31T05:18:22;98844.72;;;23.14
76901;BMP280;65859;43.020;25.096;2023-07-31T05:20:48;98849.78;;;22.76
76901;BMP280;65859;43.020;25.096;2023-07-31T05:23:15;98847.31;;;22.66
76901;BMP280;65859;43.020;25.096;2023-07-31T05:25:41;98857.69;;;22.87
76901;BMP280;65859;43.020;25.096;2023-07-31T05:28:07;98852.78;;;22.82
76901;BMP280;65859;43.020;25.096;2023-07-31T05:30:34;98849.56;;;22.87
76901;BMP280;65859;43.020;25.096;2023-07-31T05:33:00;98853.59;;;22.79
76901;BMP280;65859;43.020;25.096;2023-07-31T05:35:26;98853.16;;;22.64
76901;BMP280;65859;43.020;25.096;2023-07-31T05:37:54;98858.72;;;22.77
76901;BMP280;65859;43.020;25.096;2023-07-31T05:40:20;98857.09;;;22.59
76901;BMP280;65859;43.020;25.096;2023-07-31T05:42:46;98852.63;;;22.89
76901;BMP280;65859;43.020;25.096;2023-07-31T05:45:13;98854.72;;;23.66
76901;BMP280;65859;43.020;25.096;2023-07-31T05:47:39;98847.25;;;23.70
76901;BMP280;65859;43.020;25.096;2023-07-31T05:50:06;98854.47;;;24.06
76901;BMP280;65859;43.020;25.096;2023-07-31T05:52:32;98861.75;;;24.09
76901;BMP280;65859;43.020;25.096;2023-07-31T05:54:59;98859.50;;;24.20
76901;BMP280;65859;43.020;25.096;2023-07-31T05:57:25;98846.34;;;24.06
76901;BMP280;65859;43.020;25.096;2023-07-31T05:59:51;98859.09;;;23.92
76901;BMP280;65859;43.020;25.096;2023-07-31T06:02:19;98855.72;;;24.30
76901;BMP280;65859;43.020;25.096;2023-07-31T06:04:45;98855.63;;;24.21
76901;BMP280;65859;43.020;25.096;2023-07-31T06:07:12;98858.06;;;24.15
76901;BMP280;65859;43.020;25.096;2023-07-31T06:09:39;98860.09;;;24.28
76901;BMP280;65859;43.020;25.096;2023-07-31T06:12:06;98864.38;;;24.25
76901;BMP280;65859;43.020;25.096;2023-07-31T06:14:32;98866.91;;;24.32
76901;BMP280;65859;43.020;25.096;2023-07-31T06:16:58;98868.72;;;24.22
76901;BMP280;65859;43.020;25.096;2023-07-31T06:19:25;98872.19;;;24.23
76901;BMP280;65859;43.020;25.096;2023-07-31T06:21:51;98876.00;;;24.25
76901;BMP280;65859;43.020;25.096;2023-07-31T06:24:17;98878.84;;;24.64
76901;BMP280;65859;43.020;25.096;2023-07-31T06:26:46;98872.41;;;24.57
76901;BMP280;65859;43.020;25.096;2023-07-31T06:29:12;98882.63;;;24.66
76901;BMP280;65859;43.020;25.096;2023-07-31T06:31:38;98887.00;;;24.64
76901;BMP280;65859;43.020;25.096;2023-07-31T06:34:06;98882.09;;;24.71
76901;BMP280;65859;43.020;25.096;2023-07-31T06:36:32;98886.28;;;24.60
76901;BMP280;65859;43.020;25.096;2023-07-31T06:38:58;98878.06;;;24.76
76901;BMP280;65859;43.020;25.096;2023-07-31T06:41:26;98877.63;;;25.03
76901;BMP280;65859;43.020;25.096;2023-07-31T06:43:52;98879.16;;;25.42
76901;BMP280;65859;43.020;25.096;2023-07-31T06:46:19;98878.75;;;25.05
76901;BMP280;65859;43.020;25.096;2023-07-31T06:48:45;98883.19;;;25.24
76901;BMP280;65859;43.020;25.096;2023-07-31T06:51:11;98876.44;;;25.29
76901;BMP280;65859;43.020;25.096;2023-07-31T06:53:38;98871.00;;;25.42
76901;BMP280;65859;43.020;25.096;2023-07-31T06:56:04;98878.63;;;25.34
76901;BMP280;65859;43.020;25.096;2023-07-31T06:58:31;98882.63;;;25.42
76901;BMP280;65859;43.020;25.096;2023-07-31T07:00:57;98877.13;;;25.55
76901;BMP280;65859;43.020;25.096;2023-07-31T07:03:23;98868.59;;;25.78
76901;BMP280;65859;43.020;25.096;2023-07-31T07:05:49;98877.28;;;26.08
76901;BMP280;65859;43.020;25.096;2023-07-31T07:08:16;98874.00;;;26.13
76901;BMP280;65859;43.020;25.096;2023-07-31T07:10:43;98868.38;;;26.29
76901;BMP280;65859;43.020;25.096;2023-07-31T07:13:11;98871.84;;;26.30
76901;BMP280;65859;43.020;25.096;2023-07-31T07:15:39;98880.00;;;25.86
76901;BMP280;65859;43.020;25.096;2023-07-31T07:18:05;98874.97;;;26.19
76901;BMP280;65859;43.020;25.096;2023-07-31T07:20:31;98880.22;;;26.13
76901;BMP280;65859;43.020;25.096;2023-07-31T07:22:58;98876.44;;;26.11
76901;BMP280;65859;43.020;25.096;2023-07-31T07:25:24;98878.75;;;26.43
76901;BMP280;65859;43.020;25.096;2023-07-31T07:27:50;98883.72;;;26.45
76901;BMP280;65859;43.020;25.096;2023-07-31T07:30:17;98862.78;;;26.54
76901;BMP280;65859;43.020;25.096;2023-07-31T07:32:43;98879.28;;;27.00
76901;BMP280;65859;43.020;25.096;2023-07-31T07:35:10;98879.97;;;27.32
76901;BMP280;65859;43.020;25.096;2023-07-31T07:37:36;98877.88;;;27.54
76901;BMP280;65859;43.020;25.096;2023-07-31T07:40:02;98884.53;;;27.99
76901;BMP280;65859;43.020;25.096;2023-07-31T07:42:29;98880.41;;;28.12
76901;BMP280;65859;43.020;25.096;2023-07-31T07:44:57;98877.13;;;28.50
76901;BMP280;65859;43.020;25.096;2023-07-31T07:47:23;98878.16;;;27.92
76901;BMP280;65859;43.020;25.096;2023-07-31T07:49:49;98875.88;;;28.93
76901;BMP280;65859;43.020;25.096;2023-07-31T07:52:15;98869.03;;;29.75
76901;BMP280;65859;43.020;25.096;2023-07-31T07:54:42;98870.41;;;28.93
76901;BMP280;65859;43.020;25.096;2023-07-31T07:57:08;98865.78;;;28.85
76901;BMP280;65859;43.020;25.096;2023-07-31T07:59:36;98866.00;;;29.20
76901;BMP280;65859;43.020;25.096;2023-07-31T08:02:02;98869.16;;;28.71
76901;BMP280;65859;43.020;25.096;2023-07-31T08:04:28;98864.69;;;28.82
76901;BMP280;65859;43.020;25.096;2023-07-31T08:06:55;98872.63;;;28.29
76901;BMP280;65859;43.020;25.096;2023-07-31T08:09:21;98879.25;;;28.46
76901;BMP280;65859;43.020;25.096;2023-07-31T08:11:47;98865.28;;;28.86
76901;BMP280;65859;43.020;25.096;2023-07-31T08:14:14;98868.22;;;29.07
76901;BMP280;65859;43.020;25.096;2023-07-31T08:16:41;98864.09;;;29.50
76901;BMP280;65859;43.020;25.096;2023-07-31T08:19:08;98869.91;;;29.81
76901;BMP280;65859;43.020;25.096;2023-07-31T08:21:34;98867.31;;;29.63
76901;BMP280;65859;43.020;25.096;2023-07-31T08:24:00;98863.44;;;28.59
76901;BMP280;65859;43.020;25.096;2023-07-31T08:26:26;98868.69;;;28.72
76901;BMP280;65859;43.020;25.096;2023-07-31T08:28:53;98863.66;;;29.27
76901;BMP280;65859;43.020;25.096;2023-07-31T08:31:19;98863.84;;;30.06
76901;BMP280;65859;43.020;25.096;2023-07-31T08:33:46;98843.75;;;30.24
76901;BMP280;65859;43.020;25.096;2023-07-31T08:36:12;98858.41;;;30.56
76901;BMP280;65859;43.020;25.096;2023-07-31T08:38:38;98860.38;;;30.06
76901;BMP280;65859;43.020;25.096;2023-07-31T08:41:04;98865.53;;;31.29
76901;BMP280;65859;43.020;25.096;2023-07-31T08:43:31;98860.75;;;30.84
76901;BMP280;65859;43.020;25.096;2023-07-31T08:45:58;98860.63;;;30.72
76901;BMP280;65859;43.020;25.096;2023-07-31T08:48:26;98854.53;;;31.03
76901;BMP280;65859;43.020;25.096;2023-07-31T08:50:54;98853.69;;;30.77
76901;BMP280;65859;43.020;25.096;2023-07-31T08:53:20;98850.69;;;30.95
76901;BMP280;65859;43.020;25.096;2023-07-31T08:55:47;98867.19;;;30.81
76901;BMP280;65859;43.020;25.096;2023-07-31T08:58:14;98866.84;;;31.34
76901;BMP280;65859;43.020;25.096;2023-07-31T09:00:41;98864.59;;;31.58
76901;BMP280;65859;43.020;25.096;2023-07-31T09:03:14;98872.34;;;31.34
76901;BMP280;65859;43.020;25.096;2023-07-31T09:05:44;98859.06;;;32.10
76901;BMP280;65859;43.020;25.096;2023-07-31T09:08:11;98865.91;;;30.96
76901;BMP280;65859;43.020;25.096;2023-07-31T09:10:45;98863.34;;;35.40
76901;BMP280;65859;43.020;25.096;2023-07-31T09:13:15;98866.53;;;37.03
76901;BMP280;65859;43.020;25.096;2023-07-31T09:15:44;98874.13;;;35.67
76901;BMP280;65859;43.020;25.096;2023-07-31T09:18:10;98867.88;;;36.40
76901;BMP280;65859;43.020;25.096;2023-07-31T09:20:39;98875.84;;;36.25
76901;BMP280;65859;43.020;25.096;2023-07-31T09:23:10;98874.50;;;36.74
76901;BMP280;65859;43.020;25.096;2023-07-31T09:25:37;98867.56;;;37.18
76901;BMP280;65859;43.020;25.096;2023-07-31T09:28:06;98876.75;;;36.95
76901;BMP280;65859;43.020;25.096;2023-07-31T09:30:48;98881.22;;;37.48
76901;BMP280;65859;43.020;25.096;2023-07-31T09:33:15;98876.53;;;37.43
76901;BMP280;65859;43.020;25.096;2023-07-31T09:35:42;98846.56;;;33.11
76901;BMP280;65859;43.020;25.096;2023-07-31T09:38:13;98860.88;;;31.35
76901;BMP280;65859;43.020;25.096;2023-07-31T09:40:44;98858.47;;;31.43
76901;BMP280;65859;43.020;25.096;2023-07-31T09:43:19;98855.69;;;30.56
76901;BMP280;65859;43.020;25.096;2023-07-31T09:45:46;98860.56;;;30.52
76901;BMP280;65859;43.020;25.096;2023-07-31T09:48:17;98856.91;;;29.76
76901;BMP280;65859;43.020;25.096;2023-07-31T09:50:46;98865.00;;;29.70
76901;BMP280;65859;43.020;25.096;2023-07-31T09:53:12;98869.50;;;30.18
76901;BMP280;65859;43.020;25.096;2023-07-31T09:55:40;98856.13;;;29.90
76901;BMP280;65859;43.020;25.096;2023-07-31T09:58:10;98854.56;;;29.60
76901;BMP280;65859;43.020;25.096;2023-07-31T10:00:36;98854.16;;;29.76
76901;BMP280;65859;43.020;25.096;2023-07-31T10:03:07;98861.91;;;29.54
76901;BMP280;65859;43.020;25.096;2023-07-31T10:05:42;98856.03;;;29.70
76901;BMP280;65859;43.020;25.096;2023-07-31T10:08:10;98871.84;;;29.51
76901;BMP280;65859;43.020;25.096;2023-07-31T10:10:45;98865.97;;;29.44
76901;BMP280;65859;43.020;25.096;2023-07-31T10:13:13;98861.31;;;29.35
76901;BMP280;65859;43.020;25.096;2023-07-31T10:15:40;98855.75;;;29.29
76901;BMP280;65859;43.020;25.096;2023-07-31T10:18:07;98862.97;;;28.94
76901;BMP280;65859;43.020;25.096;2023-07-31T10:20:34;98861.25;;;28.73
76901;BMP280;65859;43.020;25.096;2023-07-31T10:23:02;98865.19;;;28.81
76901;BMP280;65859;43.020;25.096;2023-07-31T10:25:29;98873.09;;;29.03
76901;BMP280;65859;43.020;25.096;2023-07-31T10:27:57;98873.28;;;29.23
76901;BMP280;65859;43.020;25.096;2023-07-31T10:30:27;98865.94;;;29.05
76901;BMP280;65859;43.020;25.096;2023-07-31T10:32:56;98875.22;;;28.98
76901;BMP280;65859;43.020;25.096;2023-07-31T10:35:23;98863.13;;;28.67
76901;BMP280;65859;43.020;25.096;2023-07-31T10:37:50;98860.41;;;28.67
76901;BMP280;65859;43.020;25.096;2023-07-31T10:40:24;98871.31;;;28.67
76901;BMP280;65859;43.020;25.096;2023-07-31T10:42:54;98871.66;;;28.59
76901;BMP280;65859;43.020;25.096;2023-07-31T10:45:43;98875.63;;;28.49
76901;BMP280;65859;43.020;25.096;2023-07-31T10:48:17;98874.47;;;28.32
76901;BMP280;65859;43.020;25.096;2023-07-31T10:50:56;98881.56;;;28.39
76901;BMP280;65859;43.020;25.096;2023-07-31T10:53:32;98857.28;;;27.80
76901;BMP280;65859;43.020;25.096;2023-07-31T10:56:06;98880.13;;;28.01
76901;BMP280;65859;43.020;25.096;2023-07-31T10:58:33;98874.19;;;28.21
76901;BMP280;65859;43.020;25.096;2023-07-31T11:01:02;98874.38;;;27.99
76901;BMP280;65859;43.020;25.096;2023-07-31T11:03:45;98871.19;;;27.91
76901;BMP280;65859;43.020;25.096;2023-07-31T11:06:12;98864.97;;;27.91
76901;BMP280;65859;43.020;25.096;2023-07-31T11:08:44;98865.75;;;27.91
76901;BMP280;65859;43.020;25.096;2023-07-31T11:11:14;98861.81;;;28.02
76901;BMP280;65859;43.020;25.096;2023-07-31T11:13:47;98853.88;;;28.13
76901;BMP280;65859;43.020;25.096;2023-07-31T11:16:18;98858.63;;;27.94
76901;BMP280;65859;43.020;25.096;2023-07-31T11:18:46;98858.78;;;27.90
76901;BMP280;65859;43.020;25.096;2023-07-31T11:21:18;98860.88;;;27.95
76901;BMP280;65859;43.020;25.096;2023-07-31T11:23:53;98851.94;;;28.04
76901;BMP280;65859;43.020;25.096;2023-07-31T11:26:20;98856.25;;;28.29
76901;BMP280;65859;43.020;25.096;2023-07-31T11:28:50;98849.56;;;28.48
76901;BMP280;65859;43.020;25.096;2023-07-31T11:31:17;98846.44;;;28.88
76901;BMP280;65859;43.020;25.096;2023-07-31T11:33:44;98838.22;;;28.64
76901;BMP280;65859;43.020;25.096;2023-07-31T11:36:20;98840.28;;;28.79
76901;BMP280;65859;43.020;25.096;2023-07-31T11:38:47;98835.97;;;28.63
76901;BMP280;65859;43.020;25.096;2023-07-31T11:41:16;98831.59;;;28.80
76901;BMP280;65859;43.020;25.096;2023-07-31T11:43:43;98823.41;;;28.80
76901;BMP280;65859;43.020;25.096;2023-07-31T11:46:10;98817.31;;;29.09
76901;BMP280;65859;43.020;25.096;2023-07-31T11:48:37;98821.72;;;28.83
76901;BMP280;65859;43.020;25.096;2023-07-31T11:51:05;98817.06;;;29.22
76901;BMP280;65859;43.020;25.096;2023-07-31T11:53:43;98818.19;;;29.15
76901;BMP280;65859;43.020;25.096;2023-07-31T11:56:14;98810.53;;;29.58
76901;BMP280;65859;43.020;25.096;2023-07-31T11:58:44;98811.47;;;29.55
76901;BMP280;65859;43.020;25.096;2023-07-31T12:01:13;98813.19;;;29.67
76901;BMP280;65859;43.020;25.096;2023-07-31T12:03:40;98809.38;;;29.50
76901;BMP280;65859;43.020;25.096;2023-07-31T12:06:08;98809.34;;;29.88
76901;BMP280;65859;43.020;25.096;2023-07-31T12:08:34;98800.91;;;29.48
76901;BMP280;65859;43.020;25.096;2023-07-31T12:11:07;98798.66;;;29.08
76901;BMP280;65859;43.020;25.096;2023-07-31T12:13:35;98798.44;;;28.96
76901;BMP280;65859;43.020;25.096;2023-07-31T12:16:03;98793.81;;;29.03
76901;BMP280;65859;43.020;25.096;2023-07-31T12:18:34;98785.59;;;28.88
76901;BMP280;65859;43.020;25.096;2023-07-31T12:21:03;98787.81;;;29.13
76901;BMP280;65859;43.020;25.096;2023-07-31T12:23:35;98785.97;;;29.34
76901;BMP280;65859;43.020;25.096;2023-07-31T12:28:38;98781.63;;;30.01
76901;BMP280;65859;43.020;25.096;2023-07-31T12:31:08;98768.19;;;29.53
76901;BMP280;65859;43.020;25.096;2023-07-31T12:33:36;98774.97;;;29.43
76901;BMP280;65859;43.020;25.096;2023-07-31T12:36:07;98773.25;;;29.75
76901;BMP280;65859;43.020;25.096;2023-07-31T12:38:34;98770.50;;;29.90
76901;BMP280;65859;43.020;25.096;2023-07-31T12:41:00;98766.50;;;30.20
76901;BMP280;65859;43.020;25.096;2023-07-31T12:43:26;98766.56;;;29.91
76901;BMP280;65859;43.020;25.096;2023-07-31T12:45:54;98768.06;;;29.62
76901;BMP280;65859;43.020;25.096;2023-07-31T12:48:21;98763.00;;;29.55
76901;BMP280;65859;43.020;25.096;2023-07-31T12:50:47;98759.56;;;29.46
76901;BMP280;65859;43.020;25.096;2023-07-31T12:53:14;98753.34;;;29.60
76901;BMP280;65859;43.020;25.096;2023-07-31T12:55:41;98760.41;;;29.22
76901;BMP280;65859;43.020;25.096;2023-07-31T12:58:07;98761.34;;;29.19
76901;BMP280;65859;43.020;25.096;2023-07-31T13:00:35;98757.22;;;29.39
76901;BMP280;65859;43.020;25.096;2023-07-31T13:03:01;98755.16;;;29.33
76901;BMP280;65859;43.020;25.096;2023-07-31T13:05:29;98755.31;;;29.30
76901;BMP280;65859;43.020;25.096;2023-07-31T13:07:56;98750.16;;;29.17
76901;BMP280;65859;43.020;25.096;2023-07-31T13:10:23;98742.00;;;29.08
76901;BMP280;65859;43.020;25.096;2023-07-31T13:12:49;98737.00;;;29.07
76901;BMP280;65859;43.020;25.096;2023-07-31T13:15:16;98733.91;;;28.99
76901;BMP280;65859;43.020;25.096;2023-07-31T13:17:42;98719.28;;;29.02
76901;BMP280;65859;43.020;25.096;2023-07-31T13:20:09;98727.50;;;29.31
76901;BMP280;65859;43.020;25.096;2023-07-31T13:22:35;98731.56;;;29.36
76901;BMP280;65859;43.020;25.096;2023-07-31T13:25:01;98720.28;;;29.58
76901;BMP280;65859;43.020;25.096;2023-07-31T13:27:28;98724.31;;;29.48
76901;BMP280;65859;43.020;25.096;2023-07-31T13:29:54;98727.44;;;29.70
76901;BMP280;65859;43.020;25.096;2023-07-31T13:32:22;98730.44;;;29.43
76901;BMP280;65859;43.020;25.096;2023-07-31T13:34:48;98735.53;;;29.35
76901;BMP280;65859;43.020;25.096;2023-07-31T13:37:15;98727.25;;;29.59
76901;BMP280;65859;43.020;25.096;2023-07-31T13:39:42;98718.38;;;29.64
76901;BMP280;65859;43.020;25.096;2023-07-31T13:42:09;98729.19;;;29.88
76901;BMP280;65859;43.020;25.096;2023-07-31T13:44:41;98721.28;;;29.46
76901;BMP280;65859;43.020;25.096;2023-07-31T13:47:08;98722.69;;;29.85
76901;BMP280;65859;43.020;25.096;2023-07-31T13:49:35;98715.03;;;29.75
76901;BMP280;65859;43.020;25.096;2023-07-31T13:52:02;98716.84;;;29.78
76901;BMP280;65859;43.020;25.096;2023-07-31T13:54:28;98726.44;;;30.02
76901;BMP280;65859;43.020;25.096;2023-07-31T13:56:54;98715.34;;;29.77
76901;BMP280;65859;43.020;25.096;2023-07-31T13:59:21;98726.41;;;29.53
76901;BMP280;65859;43.020;25.096;2023-07-31T14:01:47;98723.75;;;29.58
76901;BMP280;65859;43.020;25.096;2023-07-31T14:04:15;98721.00;;;29.73
76901;BMP280;65859;43.020;25.096;2023-07-31T14:06:41;98714.97;;;29.69